Time;durP1;ratioP1;P1;durP2;ratioP2;P2;SDS_P1;SDS_P2;PMS_P1;PMS_P2;Temp;Humidity;BMP_temperature;BMP_pressure;BME280_temperature;BME280_humidity;BME280_pressure;Samples;Min_cycle;Max_cycle;Signal;HPM_P1;HPM_P2
2023/02/16 00:00:45;;;;;;;3.83;2.58;;;;;;;;;;5096686;28;20048;-86
2023/02/16 00:03:12;;;;;;;1.00;1.00;;;;;;;;;;5096599;28;20052;-87
2023/02/16 00:05:40;;;;;;;3.13;3.03;;;;;;;;;;5096730;28;20056;-87
2023/02/16 00:08:06;;;;;;;1.40;1.35;;;;;;;;;;5096414;28;20456;-87
2023/02/16 00:10:34;;;;;;;1.88;1.77;;;;;;;;;;5096153;28;20052;-87
2023/02/16 00:15:56;;;;;;;1.45;1.38;;;;;;;;;;5033623;28;20410;-87
2023/02/16 00:18:23;;;;;;;1.08;1.08;;;;;;;;;;5034025;28;20060;-87
2023/02/16 00:20:51;;;;;;;2.45;2.25;;;;;;;;;;5033599;28;20049;-87
2023/02/16 00:23:17;;;;;;;0.80;0.80;;;;;;;;;;5033642;28;20045;-87
2023/02/16 00:25:44;;;;;;;2.20;2.10;;;;;;;;;;5033671;28;20506;-87
2023/02/16 00:28:12;;;;;;;6.45;3.13;;;;;;;;;;5033431;28;20491;-87
2023/02/16 00:30:39;;;;;;;1.70;1.60;;;;;;;;;;5033347;28;20545;-88
2023/02/16 00:33:09;;;;;;;1.40;1.33;;;;;;;;;;5033305;28;20056;-88
2023/02/16 00:35:35;;;;;;;1.98;1.88;;;;;;;;;;5033296;28;20041;-87
2023/02/16 00:38:03;;;;;;;1.65;1.55;;;;;;;;;;5033431;28;20375;-87
2023/02/16 00:40:30;;;;;;;1.00;0.90;;;;;;;;;;5033495;28;20053;-88
2023/02/16 00:42:57;;;;;;;1.67;1.35;;;;;;;;;;5033427;28;20107;-87
2023/02/16 00:45:25;;;;;;;1.58;1.40;;;;;;;;;;5033411;28;20419;-88
2023/02/16 00:47:52;;;;;;;1.27;1.27;;;;;;;;;;5033447;28;20085;-88
2023/02/16 00:50:19;;;;;;;1.77;1.67;;;;;;;;;;5057182;28;20502;-88
2023/02/16 00:52:47;;;;;;;2.78;2.00;;;;;;;;;;5075757;28;20055;-88
2023/02/16 00:55:16;;;;;;;2.72;2.58;;;;;;;;;;5075241;28;20051;-88
2023/02/16 00:57:44;;;;;;;2.58;2.38;;;;;;;;;;5074852;28;20052;-87
2023/02/16 01:00:15;;;;;;;1.92;1.83;;;;;;;;;;5075253;28;20436;-88
2023/02/16 01:02:41;;;;;;;0.68;0.68;;;;;;;;;;5075419;28;20050;-87
2023/02/16 01:05:08;;;;;;;0.80;0.73;;;;;;;;;;5075039;28;20045;-88
2023/02/16 01:13:04;;;;;;;0.73;0.73;;;;;;;;;;5075509;28;20053;-88
2023/02/16 01:15:31;;;;;;;1.50;1.40;;;;;;;;;;5075461;28;20049;-87
2023/02/16 01:17:57;;;;;;;1.83;1.73;;;;;;;;;;5075306;28;20056;-88
2023/02/16 01:20:25;;;;;;;1.90;1.80;;;;;;;;;;5075256;28;20174;-89
2023/02/16 01:22:51;;;;;;;1.77;1.67;;;;;;;;;;5074938;28;20555;-88
2023/02/16 01:25:18;;;;;;;2.17;2.08;;;;;;;;;;5075341;28;20113;-89
2023/02/16 01:27:44;;;;;;;1.63;1.55;;;;;;;;;;5074909;28;20090;-87
2023/02/16 01:30:14;;;;;;;6.38;6.15;;;;;;;;;;5075233;28;20471;-86
2023/02/16 01:32:41;;;;;;;2.53;2.42;;;;;;;;;;5075044;28;20432;-87
2023/02/16 01:35:08;;;;;;;5.03;1.15;;;;;;;;;;5074517;28;20049;-87
2023/02/16 01:37:34;;;;;;;1.27;1.25;;;;;;;;;;5074883;28;20044;-87
2023/02/16 01:40:01;;;;;;;2.92;2.83;;;;;;;;;;5074700;28;20102;-88
2023/02/16 01:42:35;;;;;;;2.75;2.65;;;;;;;;;;5074506;28;20051;-88
2023/02/16 01:45:03;;;;;;;3.53;3.33;;;;;;;;;;5074500;28;20090;-88
2023/02/16 01:47:36;;;;;;;2.08;1.98;;;;;;;;;;5075062;28;20113;-89
2023/02/16 01:50:11;;;;;;;1.52;1.45;;;;;;;;;;5074607;28;20155;-87
2023/02/16 01:52:43;;;;;;;1.38;1.27;;;;;;;;;;5074678;28;20052;-88
2023/02/16 01:55:13;;;;;;;0.73;0.73;;;;;;;;;;5074359;28;20113;-87
2023/02/16 01:57:43;;;;;;;2.25;2.03;;;;;;;;;;5074217;28;20098;-88
2023/02/16 02:00:15;;;;;;;7.10;2.88;;;;;;;;;;5077759;28;20109;-88
2023/02/16 02:02:46;;;;;;;1.40;1.30;;;;;;;;;;5093880;28;20056;-87
2023/02/16 02:05:36;;;;;;;1.48;1.38;;;;;;;;;;5094084;28;20485;-88
2023/02/16 02:08:07;;;;;;;2.63;1.70;;;;;;;;;;5094378;28;20044;-87
2023/02/16 02:10:38;;;;;;;1.58;1.48;;;;;;;;;;5094492;28;20052;-87
2023/02/16 02:13:07;;;;;;;1.20;1.20;;;;;;;;;;5094493;28;20098;-87
2023/02/16 02:15:34;;;;;;;2.28;2.08;;;;;;;;;;5094027;28;20075;-87
2023/02/16 02:18:02;;;;;;;1.15;1.15;;;;;;;;;;5094565;28;20105;-87
2023/02/16 02:23:44;;;;;;;2.85;2.50;;;;;;;;;;5094232;28;20713;-87
2023/02/16 02:26:25;;;;;;;0.68;0.60;;;;;;;;;;5031385;28;20057;-87
2023/02/16 02:28:58;;;;;;;4.32;3.92;;;;;;;;;;5030715;28;20049;-87
2023/02/16 02:31:31;;;;;;;3.80;1.58;;;;;;;;;;5031278;28;20099;-87
2023/02/16 02:34:11;;;;;;;1.48;1.38;;;;;;;;;;5031335;28;20045;-87
2023/02/16 02:36:39;;;;;;;1.67;1.58;;;;;;;;;;5031442;28;20084;-87
2023/02/16 02:39:12;;;;;;;2.95;2.85;;;;;;;;;;5031710;28;20689;-87
2023/02/16 02:44:28;;;;;;;2.50;2.30;;;;;;;;;;5031538;28;20057;-87
2023/02/16 02:46:55;;;;;;;2.28;1.50;;;;;;;;;;5031111;28;20115;-87
2023/02/16 02:49:22;;;;;;;3.55;3.15;;;;;;;;;;5031201;28;20103;-86
2023/02/16 02:51:49;;;;;;;1.58;1.48;;;;;;;;;;5030934;28;20045;-87
2023/02/16 03:02:37;;;;;;;1.75;1.65;;;;;;;;;;5079034;28;20441;-88
2023/02/16 03:05:06;;;;;;;4.53;2.63;;;;;;;;;;5093323;28;20051;-87
2023/02/16 03:12:59;;;;;;;2.00;1.90;;;;;;;;;;5093320;28;20110;-87
2023/02/16 03:15:28;;;;;;;0.63;0.63;;;;;;;;;;5097160;28;20067;-87
2023/02/16 03:31:38;;;;;;;1.38;1.35;;;;;;;;;;5097298;28;20055;-87
2023/02/16 03:34:05;;;;;;;0.82;0.82;;;;;;;;;;5097324;28;20047;-87
2023/02/16 03:36:33;;;;;;;0.60;0.55;;;;;;;;;;5096904;28;20554;-87
2023/02/16 03:38:59;;;;;;;2.92;2.80;;;;;;;;;;5097232;28;20109;-87
2023/02/16 03:41:26;;;;;;;3.95;3.70;;;;;;;;;;5097513;28;20055;-87
2023/02/16 03:43:53;;;;;;;1.48;1.38;;;;;;;;;;5097637;28;20048;-87
2023/02/16 03:46:19;;;;;;;2.30;2.00;;;;;;;;;;5097329;28;20118;-88
2023/02/16 03:48:47;;;;;;;2.25;2.08;;;;;;;;;;5097773;28;20041;-88
2023/02/16 03:51:14;;;;;;;1.65;1.55;;;;;;;;;;5097400;28;20484;-88
2023/02/16 03:53:40;;;;;;;2.17;2.08;;;;;;;;;;5097251;28;20098;-87
2023/02/16 03:56:07;;;;;;;2.42;1.75;;;;;;;;;;5097070;28;20060;-88
2023/02/16 03:58:33;;;;;;;2.35;2.25;;;;;;;;;;5096842;28;20051;-87
2023/02/16 04:01:00;;;;;;;1.63;1.52;;;;;;;;;;5096857;28;20493;-87
2023/02/16 04:03:26;;;;;;;1.70;1.60;;;;;;;;;;5096971;28;20056;-88
2023/02/16 04:05:55;;;;;;;2.20;2.00;;;;;;;;;;5096774;28;20048;-87
2023/02/16 04:08:22;;;;;;;3.15;2.70;;;;;;;;;;5096610;28;20044;-87
2023/02/16 04:10:48;;;;;;;0.65;0.65;;;;;;;;;;5096128;28;20059;-87
2023/02/16 04:13:14;;;;;;;0.95;0.95;;;;;;;;;;5096423;28;20044;-87
2023/02/16 04:15:41;;;;;;;1.55;1.42;;;;;;;;;;5096059;28;20381;-86
2023/02/16 04:18:07;;;;;;;4.63;2.42;;;;;;;;;;5095888;28;20054;-86
2023/02/16 04:20:34;;;;;;;1.73;1.63;;;;;;;;;;5095850;28;20048;-86
2023/02/16 04:23:03;;;;;;;1.30;1.27;;;;;;;;;;5095899;28;20593;-86
2023/02/16 04:25:29;;;;;;;1.83;1.55;;;;;;;;;;5095398;28;20105;-86
2023/02/16 04:27:56;;;;;;;0.68;0.68;;;;;;;;;;5095807;28;20497;-85
2023/02/16 04:30:24;;;;;;;1.73;1.63;;;;;;;;;;5096092;28;20063;-86
2023/02/16 04:32:50;;;;;;;1.55;1.50;;;;;;;;;;5095876;28;20052;-88
2023/02/16 04:35:17;;;;;;;1.00;1.00;;;;;;;;;;5095554;28;20051;-87
2023/02/16 04:37:44;;;;;;;2.47;1.35;;;;;;;;;;5095961;28;20052;-87
2023/02/16 04:40:13;;;;;;;2.00;1.90;;;;;;;;;;5096854;28;20048;-89
2023/02/16 04:42:40;;;;;;;1.08;1.08;;;;;;;;;;5096030;28;20047;-86
2023/02/16 04:45:06;;;;;;;1.73;1.63;;;;;;;;;;5095655;28;20044;-87
2023/02/16 04:47:33;;;;;;;1.20;1.20;;;;;;;;;;5095619;28;20123;-87
2023/02/16 04:49:59;;;;;;;0.88;0.88;;;;;;;;;;5095954;28;20048;-86
2023/02/16 04:52:26;;;;;;;1.35;1.27;;;;;;;;;;5095999;28;20466;-86
2023/02/16 04:54:53;;;;;;;6.00;3.58;;;;;;;;;;5095548;28;20063;-86
2023/02/16 04:57:23;;;;;;;2.95;2.75;;;;;;;;;;5095553;28;20056;-87
2023/02/16 04:59:49;;;;;;;2.75;2.65;;;;;;;;;;5095551;28;20047;-86
2023/02/16 05:02:16;;;;;;;3.80;3.50;;;;;;;;;;5095387;28;20048;-87
2023/02/16 05:04:42;;;;;;;1.20;1.10;;;;;;;;;;5095717;28;20044;-88
2023/02/16 05:07:09;;;;;;;1.25;1.23;;;;;;;;;;5095604;28;20097;-88
2023/02/16 05:09:35;;;;;;;0.98;0.95;;;;;;;;;;5095447;28;20074;-87
2023/02/16 05:14:47;;;;;;;1.08;1.05;;;;;;;;;;5075035;28;20055;-87
2023/02/16 05:17:14;;;;;;;2.22;2.13;;;;;;;;;;5083366;28;20047;-88
2023/02/16 05:19:42;;;;;;;4.82;3.75;;;;;;;;;;5095498;28;20047;-87
2023/02/16 05:22:08;;;;;;;1.17;1.17;;;;;;;;;;5095248;28;20052;-87
2023/02/16 05:24:35;;;;;;;2.88;2.75;;;;;;;;;;5095305;28;20048;-88
2023/02/16 05:27:04;;;;;;;0.90;0.80;;;;;;;;;;5095185;28;20048;-86
2023/02/16 05:29:30;;;;;;;2.65;2.55;;;;;;;;;;5095280;28;20485;-88
2023/02/16 05:31:58;;;;;;;1.00;1.00;;;;;;;;;;5094879;28;20048;-87
2023/02/16 05:34:25;;;;;;;0.60;0.60;;;;;;;;;;5094967;28;20044;-88
2023/02/16 05:36:51;;;;;;;1.55;1.45;;;;;;;;;;5094184;28;20120;-88
2023/02/16 05:39:18;;;;;;;1.35;1.35;;;;;;;;;;5094591;28;20081;-88
2023/02/16 05:41:44;;;;;;;4.32;4.05;;;;;;;;;;5095458;28;20048;-90
2023/02/16 05:44:11;;;;;;;1.20;1.20;;;;;;;;;;5095021;28;20047;-89
2023/02/16 05:46:38;;;;;;;0.75;0.75;;;;;;;;;;5094102;28;20093;-89
2023/02/16 05:49:07;;;;;;;2.63;2.45;;;;;;;;;;5094380;28;20044;-89
2023/02/16 05:51:34;;;;;;;3.33;3.13;;;;;;;;;;5094582;28;20066;-91
2023/02/16 05:54:01;;;;;;;2.40;2.28;;;;;;;;;;5095965;28;20051;-90
2023/02/16 05:56:27;;;;;;;2.85;1.92;;;;;;;;;;5097607;28;20136;-89
2023/02/16 05:58:54;;;;;;;1.60;0.93;;;;;;;;;;5094368;28;20123;-89
2023/02/16 06:01:21;;;;;;;4.78;3.45;;;;;;;;;;5094135;28;20052;-89
2023/02/16 06:03:47;;;;;;;1.40;1.35;;;;;;;;;;5094691;28;20066;-90
2023/02/16 06:06:15;;;;;;;2.30;2.20;;;;;;;;;;5094253;28;20051;-90
2023/02/16 06:08:42;;;;;;;1.73;1.63;;;;;;;;;;5094116;28;20044;-89
2023/02/16 06:11:34;;;;;;;3.85;2.70;;;;;;;;;;5093789;28;20052;-89
2023/02/16 06:13:58;;;;;;;2.22;2.13;;;;;;;;;;5093958;28;20689;-90
2023/02/16 06:16:25;;;;;;;2.33;2.03;;;;;;;;;;5093905;28;20059;-90
2023/02/16 06:18:52;;;;;;;1.48;1.42;;;;;;;;;;5093998;28;20131;-90
2023/02/16 06:21:19;;;;;;;6.00;5.70;;;;;;;;;;5093822;28;20048;-89
2023/02/16 06:23:46;;;;;;;3.92;3.72;;;;;;;;;;5094072;28;20048;-90
2023/02/16 06:26:12;;;;;;;4.43;1.35;;;;;;;;;;5094076;28;20538;-89
2023/02/16 06:28:39;;;;;;;2.22;2.10;;;;;;;;;;5094137;28;20056;-89
2023/02/16 06:31:05;;;;;;;2.13;2.03;;;;;;;;;;5093503;28;20466;-89
2023/02/16 06:33:32;;;;;;;3.28;2.97;;;;;;;;;;5093418;28;20071;-90
2023/02/16 06:35:59;;;;;;;2.10;2.00;;;;;;;;;;5093493;28;20390;-90
2023/02/16 06:38:27;;;;;;;3.05;2.88;;;;;;;;;;5093466;28;20108;-89
2023/02/16 06:40:54;;;;;;;1.83;1.73;;;;;;;;;;5093309;28;20105;-88
2023/02/16 06:43:20;;;;;;;2.45;2.33;;;;;;;;;;5093491;28;20120;-89
2023/02/16 06:45:47;;;;;;;3.28;2.47;;;;;;;;;;5093294;28;20538;-87
2023/02/16 06:48:14;;;;;;;4.00;2.88;;;;;;;;;;5093089;28;20093;-89
2023/02/16 06:50:40;;;;;;;2.17;2.08;;;;;;;;;;5093332;28;20048;-89
2023/02/16 06:53:07;;;;;;;2.45;2.20;;;;;;;;;;5093905;28;20093;-88
2023/02/16 06:55:35;;;;;;;3.67;3.38;;;;;;;;;;5093586;28;20412;-88
2023/02/16 06:58:02;;;;;;;3.95;3.75;;;;;;;;;;5093773;28;20086;-88
2023/02/16 07:00:29;;;;;;;1.27;1.17;;;;;;;;;;5093731;28;20055;-90
2023/02/16 07:02:56;;;;;;;2.60;2.40;;;;;;;;;;5100665;28;20135;-89
2023/02/16 07:08:06;;;;;;;4.60;3.42;;;;;;;;;;5095682;28;20420;-90
2023/02/16 07:10:32;;;;;;;3.70;3.50;;;;;;;;;;5094096;28;20051;-90
2023/02/16 07:13:00;;;;;;;2.60;2.45;;;;;;;;;;5094002;28;20059;-89
2023/02/16 07:15:27;;;;;;;3.78;3.55;;;;;;;;;;5094774;28;20048;-91
2023/02/16 07:17:53;;;;;;;1.20;1.17;;;;;;;;;;5094202;28;20044;-90
2023/02/16 07:20:20;;;;;;;2.88;2.67;;;;;;;;;;5094284;28;20051;-90
2023/02/16 07:22:46;;;;;;;4.78;4.50;;;;;;;;;;5094172;28;20112;-89
2023/02/16 07:25:13;;;;;;;2.20;1.27;;;;;;;;;;5093945;28;20448;-90
2023/02/16 07:27:39;;;;;;;4.00;3.58;;;;;;;;;;5093509;28;20077;-90
2023/02/16 07:30:09;;;;;;;3.78;3.40;;;;;;;;;;5094051;28;20044;-89
2023/02/16 07:32:36;;;;;;;4.13;3.83;;;;;;;;;;5094006;28;20044;-88
2023/02/16 07:35:02;;;;;;;2.30;2.20;;;;;;;;;;5093731;28;20048;-89
2023/02/16 07:37:29;;;;;;;5.90;4.32;;;;;;;;;;5092923;28;20059;-89
2023/02/16 07:39:55;;;;;;;6.80;3.47;;;;;;;;;;5092753;28;20101;-89
2023/02/16 07:42:22;;;;;;;5.25;4.78;;;;;;;;;;5092753;28;20040;-88
2023/02/16 07:44:48;;;;;;;7.95;7.30;;;;;;;;;;5092902;28;20105;-90
2023/02/16 07:47:16;;;;;;;3.58;3.38;;;;;;;;;;5092807;28;20048;-88
2023/02/16 07:49:43;;;;;;;4.10;3.85;;;;;;;;;;5092651;28;20070;-89
2023/02/16 07:52:09;;;;;;;10.43;6.28;;;;;;;;;;5092516;28;20055;-88
2023/02/16 07:54:36;;;;;;;5.85;5.45;;;;;;;;;;5092751;28;20052;-88
2023/02/16 07:57:03;;;;;;;3.33;3.13;;;;;;;;;;5092203;28;20501;-87
2023/02/16 07:59:29;;;;;;;8.60;7.40;;;;;;;;;;5092591;28;20113;-87
2023/02/16 08:01:56;;;;;;;7.07;5.93;;;;;;;;;;5095603;28;20052;-87
2023/02/16 08:04:24;;;;;;;4.90;4.25;;;;;;;;;;5096648;28;20051;-87
2023/02/16 08:06:51;;;;;;;5.63;5.20;;;;;;;;;;5095626;28;20055;-86
2023/02/16 08:09:17;;;;;;;5.38;4.85;;;;;;;;;;5080829;28;20067;-86
2023/02/16 08:11:44;;;;;;;6.22;5.72;;;;;;;;;;5076630;28;20448;-88
2023/02/16 08:14:11;;;;;;;6.15;5.55;;;;;;;;;;5076431;28;20052;-86
2023/02/16 08:16:38;;;;;;;2.58;2.42;;;;;;;;;;5078125;28;20044;-86
2023/02/16 08:19:04;;;;;;;3.92;3.72;;;;;;;;;;5076286;28;20509;-86
2023/02/16 08:21:33;;;;;;;4.82;3.78;;;;;;;;;;5075810;28;20060;-85
2023/02/16 08:24:00;;;;;;;3.50;3.30;;;;;;;;;;5091319;28;20105;-86
2023/02/16 08:26:27;;;;;;;9.73;8.50;;;;;;;;;;5098530;28;20467;-87
2023/02/16 08:28:56;;;;;;;4.78;4.45;;;;;;;;;;5104725;28;20070;-86
2023/02/16 08:31:24;;;;;;;14.43;6.30;;;;;;;;;;5105384;28;20113;-87
2023/02/16 08:33:50;;;;;;;9.05;7.32;;;;;;;;;;5105910;28;20052;-86
2023/02/16 08:36:18;;;;;;;6.85;4.82;;;;;;;;;;5104820;28;20105;-86
2023/02/16 08:38:48;;;;;;;6.88;6.20;;;;;;;;;;5103182;28;20056;-86
2023/02/16 08:41:15;;;;;;;5.78;4.97;;;;;;;;;;5097863;28;20070;-86
2023/02/16 08:43:41;;;;;;;6.38;5.90;;;;;;;;;;5093637;28;20439;-86
2023/02/16 08:46:09;;;;;;;8.55;5.45;;;;;;;;;;5095501;28;20129;-87
2023/02/16 08:48:36;;;;;;;10.20;9.13;;;;;;;;;;5096177;28;20087;-87
2023/02/16 08:51:05;;;;;;;6.13;5.68;;;;;;;;;;5095420;28;20051;-87
2023/02/16 08:53:32;;;;;;;6.38;5.95;;;;;;;;;;5095855;28;20090;-87
2023/02/16 08:56:02;;;;;;;7.10;5.95;;;;;;;;;;5095118;28;20059;-87
2023/02/16 08:58:29;;;;;;;6.68;6.10;;;;;;;;;;5095454;28;20514;-87
2023/02/16 09:00:56;;;;;;;3.33;3.10;;;;;;;;;;5095335;28;20063;-88
2023/02/16 09:03:22;;;;;;;4.80;4.47;;;;;;;;;;5095237;28;20131;-87
2023/02/16 09:05:50;;;;;;;8.80;5.03;;;;;;;;;;5095267;28;20043;-87
2023/02/16 09:08:16;;;;;;;8.07;7.00;;;;;;;;;;5095373;28;20070;-87
2023/02/16 09:10:43;;;;;;;6.60;6.10;;;;;;;;;;5094961;28;20079;-87
2023/02/16 09:13:13;;;;;;;8.45;7.75;;;;;;;;;;5094297;28;20040;-87
2023/02/16 09:15:40;;;;;;;9.20;8.27;;;;;;;;;;5094405;28;20050;-87
2023/02/16 09:18:07;;;;;;;6.35;5.78;;;;;;;;;;5094239;28;20048;-87
2023/02/16 09:20:36;;;;;;;4.95;4.68;;;;;;;;;;5094338;28;20059;-87
2023/02/16 09:23:02;;;;;;;12.25;7.00;;;;;;;;;;5094832;28;20052;-87
2023/02/16 09:25:29;;;;;;;5.55;5.10;;;;;;;;;;5094378;28;20066;-87
2023/02/16 09:27:55;;;;;;;4.80;4.50;;;;;;;;;;5094842;28;20051;-87
2023/02/16 09:30:24;;;;;;;6.03;5.50;;;;;;;;;;5094294;28;20394;-87
2023/02/16 09:32:51;;;;;;;4.63;4.32;;;;;;;;;;5094621;28;20402;-87
2023/02/16 09:35:17;;;;;;;7.63;6.20;;;;;;;;;;5094480;28;20097;-87
2023/02/16 09:37:44;;;;;;;8.80;5.60;;;;;;;;;;5094986;28;20057;-87
2023/02/16 09:40:12;;;;;;;6.43;5.57;;;;;;;;;;5094288;28;20048;-87
2023/02/16 09:42:47;;;;;;;4.35;4.03;;;;;;;;;;5094649;28;20134;-88
2023/02/16 09:45:15;;;;;;;5.53;5.20;;;;;;;;;;5094559;28;20108;-89
2023/02/16 09:47:44;;;;;;;7.80;6.28;;;;;;;;;;5094604;28;20044;-87
2023/02/16 09:50:14;;;;;;;4.60;4.20;;;;;;;;;;5094458;28;20138;-87
2023/02/16 09:52:42;;;;;;;7.13;6.53;;;;;;;;;;5094785;28;20056;-87
2023/02/16 09:55:17;;;;;;;5.20;4.70;;;;;;;;;;5104665;28;20048;-87
2023/02/16 09:57:55;;;;;;;4.88;4.57;;;;;;;;;;5095687;28;20092;-86
2023/02/16 10:00:26;;;;;;;4.90;3.80;;;;;;;;;;5094363;28;20056;-86
2023/02/16 10:02:53;;;;;;;;;;;;;;;;;;5094976;28;20052;-86
2023/02/16 10:05:24;;;;;;;14.55;9.55;;;;;;;;;;5094330;28;20007;-86
2023/02/16 10:07:56;;;;;;;7.50;4.88;;;;;;;;;;5094234;28;20079;-86
2023/02/16 10:10:23;;;;;;;5.45;5.05;;;;;;;;;;5093961;28;20056;-86
2023/02/16 10:12:53;;;;;;;7.05;6.43;;;;;;;;;;5094096;28;20105;-86
2023/02/16 10:15:22;;;;;;;5.50;4.70;;;;;;;;;;5093632;28;20052;-87
2023/02/16 10:17:51;;;;;;;4.57;3.88;;;;;;;;;;5093854;28;20436;-87
2023/02/16 10:20:20;;;;;;;6.65;5.22;;;;;;;;;;5093554;28;20511;-87
2023/02/16 10:22:49;;;;;;;10.07;5.47;;;;;;;;;;5092982;28;20044;-87
2023/02/16 10:25:18;;;;;;;4.90;4.30;;;;;;;;;;5093630;28;20417;-86
2023/02/16 10:27:47;;;;;;;7.15;5.30;;;;;;;;;;5094076;28;20131;-86
2023/02/16 10:30:15;;;;;;;13.13;6.53;;;;;;;;;;5093765;28;20130;-87
2023/02/16 10:32:46;;;;;;;3.38;3.25;;;;;;;;;;5093565;28;20048;-87
2023/02/16 10:35:16;;;;;;;5.93;5.43;;;;;;;;;;5093127;28;20112;-87
2023/02/16 10:37:49;;;;;;;5.05;4.45;;;;;;;;;;5093112;28;20052;-87
2023/02/16 10:40:27;;;;;;;7.47;6.35;;;;;;;;;;5093989;28;20052;-87
2023/02/16 10:42:56;;;;;;;6.15;5.50;;;;;;;;;;5093783;28;20059;-87
2023/02/16 10:45:27;;;;;;;5.40;3.90;;;;;;;;;;5093538;28;20489;-87
2023/02/16 10:47:53;;;;;;;10.50;9.55;;;;;;;;;;5093326;28;20044;-86
2023/02/16 10:50:22;;;;;;;5.38;4.97;;;;;;;;;;5093676;28;20047;-86
2023/02/16 10:52:49;;;;;;;7.97;6.50;;;;;;;;;;5093304;28;20622;-86
2023/02/16 10:55:16;;;;;;;4.65;4.25;;;;;;;;;;5093557;28;20052;-87
2023/02/16 10:57:50;;;;;;;7.72;7.05;;;;;;;;;;5092981;28;20056;-87
2023/02/16 11:00:18;;;;;;;8.02;6.80;;;;;;;;;;5093574;28;20055;-88
2023/02/16 11:02:46;;;;;;;8.60;5.97;;;;;;;;;;5093053;28;20098;-88
2023/02/16 11:05:31;;;;;;;6.90;5.93;;;;;;;;;;5093417;28;20048;-87
2023/02/16 11:08:00;;;;;;;7.93;7.22;;;;;;;;;;5093172;28;20101;-88
2023/02/16 11:10:34;;;;;;;7.93;7.25;;;;;;;;;;5093470;28;20052;-88
2023/02/16 11:13:03;;;;;;;8.48;7.78;;;;;;;;;;5092609;28;20489;-87
2023/02/16 11:15:30;;;;;;;10.93;6.10;;;;;;;;;;5093214;28;20075;-88
2023/02/16 11:17:57;;;;;;;7.07;6.43;;;;;;;;;;5092911;28;20097;-88
2023/02/16 11:20:28;;;;;;;9.25;6.38;;;;;;;;;;5092752;28;20086;-87
2023/02/16 11:23:12;;;;;;;7.72;7.03;;;;;;;;;;5093061;28;20054;-88
2023/02/16 11:25:38;;;;;;;8.30;6.03;;;;;;;;;;5092828;28;20101;-87
2023/02/16 11:28:07;;;;;;;9.00;7.75;;;;;;;;;;5093165;28;20109;-88
2023/02/16 11:30:34;;;;;;;7.28;6.65;;;;;;;;;;5093296;28;20701;-88
2023/02/16 11:33:03;;;;;;;8.32;7.57;;;;;;;;;;5093146;28;20052;-88
2023/02/16 11:35:31;;;;;;;7.68;7.18;;;;;;;;;;5093590;28;20048;-87
2023/02/16 11:37:58;;;;;;;9.85;9.00;;;;;;;;;;5097073;28;20052;-88
2023/02/16 11:40:26;;;;;;;9.70;8.35;;;;;;;;;;5096488;28;20052;-87
2023/02/16 11:42:54;;;;;;;16.05;10.35;;;;;;;;;;5096543;28;20508;-88
2023/02/16 11:45:27;;;;;;;8.40;7.57;;;;;;;;;;5095817;28;20052;-87
2023/02/16 11:47:55;;;;;;;10.55;9.55;;;;;;;;;;5094457;28;20056;-86
2023/02/16 11:50:24;;;;;;;10.57;7.55;;;;;;;;;;5096679;28;20455;-86
2023/02/16 11:52:52;;;;;;;9.68;8.75;;;;;;;;;;5090245;28;20091;-85
2023/02/16 11:55:20;;;;;;;10.65;6.82;;;;;;;;;;5095485;28;20056;-85
2023/02/16 11:57:47;;;;;;;8.63;7.82;;;;;;;;;;5095476;28;20052;-85
2023/02/16 12:00:15;;;;;;;9.30;6.95;;;;;;;;;;5089377;28;20131;-86
2023/02/16 12:02:59;;;;;;;10.88;8.48;;;;;;;;;;5086891;28;20131;-86
2023/02/16 12:05:30;;;;;;;10.80;8.38;;;;;;;;;;5086994;28;20128;-87
2023/02/16 12:08:14;;;;;;;6.15;5.68;;;;;;;;;;5094641;28;20102;-88
2023/02/16 12:10:46;;;;;;;7.93;7.30;;;;;;;;;;5082938;28;20140;-87
2023/02/16 12:13:18;;;;;;;13.65;8.00;;;;;;;;;;5074990;28;20121;-86
2023/02/16 12:15:46;;;;;;;8.70;8.00;;;;;;;;;;5079217;28;20048;-87
2023/02/16 12:18:20;;;;;;;6.15;5.60;;;;;;;;;;5086103;28;20131;-85
2023/02/16 12:20:50;;;;;;;8.95;6.43;;;;;;;;;;5091090;28;20044;-86
2023/02/16 12:23:24;;;;;;;5.97;4.78;;;;;;;;;;5090921;28;20144;-86
2023/02/16 12:25:54;;;;;;;13.27;7.47;;;;;;;;;;5094771;28;20073;-86
2023/02/16 12:28:24;;;;;;;6.63;6.03;;;;;;;;;;5094877;28;20558;-87
2023/02/16 12:30:55;;;;;;;9.30;8.35;;;;;;;;;;5094234;28;20048;-86
2023/02/16 12:33:33;;;;;;;10.02;6.13;;;;;;;;;;5088102;28;20516;-87
2023/02/16 12:36:08;;;;;;;9.88;9.07;;;;;;;;;;5094744;28;20051;-87
2023/02/16 12:38:41;;;;;;;8.82;7.25;;;;;;;;;;5090113;28;20044;-87
2023/02/16 12:41:15;;;;;;;12.57;8.02;;;;;;;;;;5091770;28;20113;-86
2023/02/16 12:43:42;;;;;;;11.00;7.18;;;;;;;;;;5089024;28;20085;-87
2023/02/16 12:46:13;;;;;;;8.82;7.97;;;;;;;;;;5093166;28;20051;-87
2023/02/16 12:48:45;;;;;;;8.75;8.05;;;;;;;;;;5094366;28;20051;-87
2023/02/16 12:51:15;;;;;;;11.82;9.57;;;;;;;;;;5094397;28;20052;-87
2023/02/16 12:53:46;;;;;;;8.18;7.43;;;;;;;;;;5094073;28;20098;-87
2023/02/16 12:56:17;;;;;;;10.07;8.30;;;;;;;;;;5094087;28;20062;-87
2023/02/16 12:58:46;;;;;;;9.00;7.65;;;;;;;;;;5094162;28;20044;-87
2023/02/16 13:01:16;;;;;;;9.20;8.40;;;;;;;;;;5094464;28;20052;-87
2023/02/16 13:03:47;;;;;;;8.55;7.65;;;;;;;;;;5094049;28;20798;-86
2023/02/16 13:06:18;;;;;;;7.18;6.57;;;;;;;;;;5093591;28;20052;-87
2023/02/16 13:08:48;;;;;;;8.23;6.97;;;;;;;;;;5093329;28;20131;-87
2023/02/16 13:11:17;;;;;;;7.35;6.72;;;;;;;;;;5093341;28;20048;-87
2023/02/16 13:13:46;;;;;;;7.28;6.53;;;;;;;;;;5093594;28;20052;-87
2023/02/16 13:16:15;;;;;;;8.45;7.75;;;;;;;;;;5093717;28;20056;-87
2023/02/16 13:18:44;;;;;;;5.45;5.05;;;;;;;;;;5094033;28;20048;-88
2023/02/16 13:21:14;;;;;;;6.30;4.97;;;;;;;;;;5091440;28;20144;-88
2023/02/16 13:23:51;;;;;;;7.28;6.78;;;;;;;;;;5088493;28;20045;-87
2023/02/16 13:26:26;;;;;;;6.82;5.80;;;;;;;;;;5085166;28;20090;-87
2023/02/16 13:29:03;;;;;;;3.38;3.17;;;;;;;;;;5093613;28;20059;-87
2023/02/16 13:31:37;;;;;;;7.18;6.63;;;;;;;;;;5093133;28;20052;-87
2023/02/16 13:34:21;;;;;;;7.82;7.15;;;;;;;;;;5091270;28;20086;-85
2023/02/16 13:36:57;;;;;;;7.57;6.93;;;;;;;;;;5092714;28;20629;-85
2023/02/16 13:39:34;;;;;;;8.77;8.15;;;;;;;;;;5090266;28;20128;-86
2023/02/16 13:42:06;;;;;;;8.52;7.93;;;;;;;;;;5081572;28;20044;-86
2023/02/16 13:44:36;;;;;;;6.53;6.03;;;;;;;;;;5093790;28;20134;-87
2023/02/16 13:47:14;;;;;;;7.45;6.57;;;;;;;;;;5090264;28;20055;-88
2023/02/16 13:49:42;;;;;;;9.40;7.05;;;;;;;;;;5092518;28;20101;-86
2023/02/16 13:52:10;;;;;;;4.95;4.32;;;;;;;;;;5091830;28;20154;-86
2023/02/16 13:54:38;;;;;;;7.10;6.45;;;;;;;;;;5090425;28;20047;-86
2023/02/16 13:57:05;;;;;;;6.15;5.63;;;;;;;;;;5093977;28;20055;-86
2023/02/16 13:59:55;;;;;;;6.32;5.82;;;;;;;;;;5093139;28;20044;-86
2023/02/16 14:02:37;;;;;;;8.90;5.68;;;;;;;;;;5094001;28;20044;-86
2023/02/16 14:05:09;;;;;;;4.82;4.50;;;;;;;;;;5093505;28;20040;-86
2023/02/16 14:07:38;;;;;;;6.03;5.53;;;;;;;;;;5093748;28;20044;-88
2023/02/16 14:10:06;;;;;;;6.72;5.72;;;;;;;;;;5093497;28;20048;-86
2023/02/16 14:12:37;;;;;;;7.07;6.22;;;;;;;;;;5093818;28;20040;-87
2023/02/16 14:15:06;;;;;;;9.77;6.82;;;;;;;;;;5093763;28;20064;-90
2023/02/16 14:17:34;;;;;;;13.25;11.07;;;;;;;;;;5091227;28;20047;-86
2023/02/16 14:20:03;;;;;;;5.63;4.20;;;;;;;;;;5088923;28;20052;-86
2023/02/16 14:22:35;;;;;;;6.43;5.82;;;;;;;;;;5093688;28;20079;-86
2023/02/16 14:25:04;;;;;;;6.97;5.57;;;;;;;;;;5093109;28;20109;-86
2023/02/16 14:27:41;;;;;;;6.70;6.20;;;;;;;;;;5093390;28;20048;-87
2023/02/16 14:30:14;;;;;;;5.43;4.93;;;;;;;;;;5093505;28;20051;-86
2023/02/16 14:32:45;;;;;;;5.65;5.13;;;;;;;;;;5085989;28;20071;-86
2023/02/16 14:35:15;;;;;;;6.60;6.00;;;;;;;;;;5090383;28;20057;-86
2023/02/16 14:37:44;;;;;;;4.43;4.07;;;;;;;;;;5093187;28;20048;-86
2023/02/16 14:40:20;;;;;;;5.50;4.97;;;;;;;;;;5093621;28;20101;-87
2023/02/16 14:42:54;;;;;;;5.00;4.68;;;;;;;;;;5092972;28;20047;-86
2023/02/16 14:45:33;;;;;;;5.10;4.68;;;;;;;;;;5093533;28;20192;-86
2023/02/16 14:48:07;;;;;;;4.07;3.67;;;;;;;;;;5093560;28;20097;-87
2023/02/16 14:50:41;;;;;;;4.03;3.72;;;;;;;;;;5093483;28;20056;-86
2023/02/16 14:53:22;;;;;;;7.22;3.97;;;;;;;;;;5092251;28;20048;-88
2023/02/16 14:56:10;;;;;;;4.57;4.15;;;;;;;;;;5093029;28;20050;-88
2023/02/16 14:58:43;;;;;;;4.40;3.70;;;;;;;;;;5087107;28;20048;-90
2023/02/16 15:01:11;;;;;;;6.78;6.13;;;;;;;;;;5093233;28;20101;-89
2023/02/16 15:03:39;;;;;;;4.80;4.35;;;;;;;;;;5093610;28;20130;-89
2023/02/16 15:06:06;;;;;;;6.93;4.55;;;;;;;;;;5093847;28;20044;-88
2023/02/16 15:08:34;;;;;;;3.85;3.50;;;;;;;;;;5090083;28;20639;-88
2023/02/16 15:11:04;;;;;;;3.28;3.08;;;;;;;;;;5095760;28;20047;-88
2023/02/16 15:13:32;;;;;;;7.72;6.70;;;;;;;;;;5097072;28;20044;-89
2023/02/16 15:16:02;;;;;;;4.18;3.78;;;;;;;;;;5097309;28;20459;-88
2023/02/16 15:18:34;;;;;;;5.53;4.57;;;;;;;;;;5097950;28;20494;-89
2023/02/16 15:21:01;;;;;;;7.13;3.90;;;;;;;;;;5097774;28;20047;-88
2023/02/16 15:23:28;;;;;;;3.95;3.65;;;;;;;;;;5097687;28;20044;-88
2023/02/16 15:25:57;;;;;;;5.65;5.13;;;;;;;;;;5091793;28;20091;-89
2023/02/16 15:28:26;;;;;;;5.07;4.45;;;;;;;;;;5077307;28;20781;-89
2023/02/16 15:30:54;;;;;;;5.70;5.22;;;;;;;;;;5086145;28;20123;-91
2023/02/16 15:33:32;;;;;;;5.85;5.35;;;;;;;;;;5097633;28;20056;-89
2023/02/16 15:36:00;;;;;;;3.28;2.83;;;;;;;;;;5097688;28;20127;-92
2023/02/16 15:38:30;;;;;;;4.93;4.25;;;;;;;;;;5097206;28;20093;-90
2023/02/16 15:40:58;;;;;;;3.95;3.63;;;;;;;;;;5097378;28;20052;-92